Terminal Aerodrome Forecast
Issued by NWS

Home | Current Version | Previous Version | Text Only | Print | Product List | Glossary On
Versions: 1 2 3 4 5 6 7 8 9 10 11 12 13 14
701
FTUS44 KLUB 071733
TAFCDS
TAF
KCDS 071733Z 0718/0818 13006KT P6SM BKN035 BKN200
     FM072100 03014KT P6SM BKN035
     FM080600 04015KT P6SM OVC015=

USA.gov is the U.S. government's official web portal to all federal, state and local government web resources and services.